Time;durP1;ratioP1;P1;durP2;ratioP2;P2;SDS_P1;SDS_P2;PMS_P1;PMS_P2;Temp;Humidity;BMP_temperature;BMP_pressure;BME280_temperature;BME280_humidity;BME280_pressure;Samples;Min_cycle;Max_cycle;Signal;HPM_P1;HPM_P2
2022/04/18 00:00:04;;;;;;;10.15;7.95;;;13.00;99.90;;;;;;4993749;28;20287;-76
2022/04/18 00:02:31;;;;;;;9.48;8.48;;;12.90;99.90;;;;;;4994209;28;20209;-77
2022/04/18 00:04:59;;;;;;;9.00;7.72;;;12.90;99.90;;;;;;4994261;28;20287;-73
2022/04/18 00:07:26;;;;;;;15.20;8.57;;;12.70;99.90;;;;;;4993769;28;20635;-77
2022/04/18 00:09:53;;;;;;;11.20;7.68;;;12.80;99.90;;;;;;4994282;28;20251;-76
2022/04/18 00:12:22;;;;;;;9.45;8.27;;;12.80;99.90;;;;;;4993411;28;20208;-77
2022/04/18 00:14:48;;;;;;;11.32;9.23;;;12.80;99.90;;;;;;4993759;28;20247;-77
2022/04/18 00:17:15;;;;;;;10.48;9.25;;;12.90;99.90;;;;;;4993465;28;20208;-75
2022/04/18 00:19:42;;;;;;;10.77;9.60;;;12.70;99.90;;;;;;4993939;28;20264;-75
2022/04/18 00:22:09;;;;;;;9.70;8.75;;;12.70;99.90;;;;;;4993489;28;20727;-77
2022/04/18 00:24:36;;;;;;;11.52;10.27;;;12.70;99.90;;;;;;4993842;28;20263;-77
2022/04/18 00:27:04;;;;;;;12.57;10.48;;;12.60;99.90;;;;;;4993353;28;20204;-76
2022/04/18 00:29:33;;;;;;;13.05;10.02;;;12.60;99.90;;;;;;4993668;28;20294;-77
2022/04/18 00:32:00;;;;;;;12.73;10.38;;;12.50;99.90;;;;;;4993941;28;20209;-77
2022/04/18 00:34:27;;;;;;;12.35;9.95;;;12.60;99.90;;;;;;4993932;28;20252;-77
2022/04/18 00:36:54;;;;;;;12.93;9.82;;;12.40;99.90;;;;;;4994131;28;20226;-77
2022/04/18 00:39:21;;;;;;;16.02;10.18;;;12.40;99.90;;;;;;4993323;28;20208;-73
2022/04/18 00:41:48;;;;;;;15.68;11.05;;;12.30;99.90;;;;;;4993557;28;20292;-77
2022/04/18 00:44:15;;;;;;;15.20;11.18;;;12.30;99.90;;;;;;4993106;28;20592;-77
2022/04/18 00:46:44;;;;;;;14.70;10.80;;;12.30;99.90;;;;;;4993284;28;20611;-72
2022/04/18 00:49:11;;;;;;;16.50;12.65;;;12.40;99.90;;;;;;4993042;28;20209;-78
2022/04/18 00:51:38;;;;;;;14.15;10.40;;;12.30;99.90;;;;;;4993603;28;20672;-76
2022/04/18 00:54:06;;;;;;;12.65;10.60;;;12.40;99.90;;;;;;4992994;28;20651;-77
2022/04/18 00:56:33;;;;;;;18.45;11.00;;;12.40;99.90;;;;;;4993310;28;20209;-78
2022/04/18 00:59:01;;;;;;;13.95;11.65;;;12.40;99.90;;;;;;4993048;28;20241;-74
2022/04/18 01:01:28;;;;;;;16.90;12.25;;;12.50;99.90;;;;;;4993664;28;20208;-73
2022/04/18 01:03:56;;;;;;;15.48;11.43;;;12.50;99.90;;;;;;4993539;28;20205;-73
2022/04/18 01:06:23;;;;;;;13.35;10.93;;;12.50;99.90;;;;;;4992950;28;20209;-74
2022/04/18 01:08:50;;;;;;;16.13;10.95;;;12.50;99.90;;;;;;4993158;28;20205;-76
2022/04/18 01:11:17;;;;;;;11.98;9.85;;;12.50;99.90;;;;;;4992560;28;20213;-76
2022/04/18 01:13:45;;;;;;;17.63;11.57;;;12.50;99.90;;;;;;4992722;28;20209;-77
2022/04/18 01:16:13;;;;;;;14.82;12.05;;;12.40;99.90;;;;;;4992673;28;20294;-77
2022/04/18 01:18:41;;;;;;;12.88;10.40;;;12.30;99.90;;;;;;4992934;28;20213;-77
2022/04/18 01:21:10;;;;;;;14.35;11.32;;;12.30;99.90;;;;;;4992303;28;20579;-76
2022/04/18 01:23:38;;;;;;;12.52;10.45;;;12.40;99.90;;;;;;4992419;28;20267;-77
2022/04/18 01:29:02;;;;;;;12.68;11.38;;;12.30;99.90;;;;;;4992513;28;20255;-75
2022/04/18 01:31:30;;;;;;;14.88;10.55;;;12.30;99.90;;;;;;4992636;28;20340;-74
2022/04/18 01:33:58;;;;;;;12.85;11.25;;;12.30;99.90;;;;;;4992731;28;20672;-76
2022/04/18 01:36:28;;;;;;;18.88;15.00;;;12.20;99.90;;;;;;4992484;28;20204;-76
2022/04/18 01:38:55;;;;;;;14.63;11.20;;;12.30;99.90;;;;;;4992982;28;20204;-75
2022/04/18 01:41:23;;;;;;;15.35;11.70;;;12.20;99.90;;;;;;4991846;28;20213;-73
2022/04/18 01:43:50;;;;;;;14.32;12.80;;;12.20;99.90;;;;;;4992181;28;20740;-77
2022/04/18 01:46:17;;;;;;;14.73;11.35;;;12.20;99.90;;;;;;4992057;28;20204;-73
2022/04/18 01:48:44;;;;;;;15.07;11.43;;;12.20;99.90;;;;;;4992496;28;20624;-72
2022/04/18 01:51:11;;;;;;;14.10;12.03;;;12.10;99.90;;;;;;4991813;28;20200;-76
2022/04/18 01:53:40;;;;;;;12.30;10.70;;;12.20;99.90;;;;;;4992383;28;20279;-76
2022/04/18 01:56:07;;;;;;;15.47;11.63;;;12.20;99.90;;;;;;4991764;28;20236;-74
2022/04/18 01:58:34;;;;;;;13.70;11.07;;;12.30;99.90;;;;;;4992104;28;20544;-77
2022/04/18 02:01:01;;;;;;;17.57;10.93;;;12.30;99.90;;;;;;4992087;28;20211;-77
2022/04/18 02:03:28;;;;;;;16.83;11.35;;;12.20;99.90;;;;;;4992304;28;20278;-73
2022/04/18 02:05:55;;;;;;;14.73;11.02;;;12.30;99.90;;;;;;4991876;28;20259;-76
2022/04/18 02:08:23;;;;;;;10.93;9.70;;;12.20;99.90;;;;;;4991788;28;20291;-73
2022/04/18 02:10:51;;;;;;;12.18;10.95;;;12.20;99.90;;;;;;4991646;28;20223;-75
2022/04/18 02:13:19;;;;;;;14.73;10.55;;;12.20;99.90;;;;;;4991555;28;20205;-75
2022/04/18 02:15:46;;;;;;;13.10;11.50;;;12.30;99.90;;;;;;4991748;28;20241;-76
2022/04/18 02:18:13;;;;;;;11.25;10.05;;;12.10;99.90;;;;;;4991148;28;20201;-72
2022/04/18 02:20:40;;;;;;;13.40;10.53;;;12.20;99.90;;;;;;4991999;28;20625;-73
2022/04/18 02:23:08;;;;;;;13.23;10.33;;;12.20;99.90;;;;;;4991267;28;20205;-77
2022/04/18 02:25:35;;;;;;;12.38;11.00;;;12.20;99.90;;;;;;4991599;28;20224;-76
2022/04/18 02:28:03;;;;;;;11.63;9.77;;;12.20;99.90;;;;;;4991591;28;20259;-74
2022/04/18 02:30:30;;;;;;;13.80;10.48;;;12.20;99.90;;;;;;4991378;28;20201;-72
2022/04/18 02:32:58;;;;;;;11.70;10.57;;;12.20;99.90;;;;;;4991708;28;20205;-75
2022/04/18 02:35:26;;;;;;;10.13;9.13;;;12.30;99.90;;;;;;4991313;28;20244;-73
2022/04/18 02:37:54;;;;;;;16.10;9.82;;;12.30;99.90;;;;;;4991453;28;20209;-76
2022/04/18 02:40:22;;;;;;;12.30;10.82;;;12.30;99.90;;;;;;4990926;28;20552;-77
2022/04/18 02:42:50;;;;;;;12.88;10.05;;;12.20;99.90;;;;;;4991212;28;20584;-76
2022/04/18 02:45:19;;;;;;;13.60;10.23;;;12.20;99.90;;;;;;4991072;28;20205;-75
2022/04/18 02:47:46;;;;;;;10.37;9.30;;;12.10;99.90;;;;;;4991598;28;20230;-76
2022/04/18 02:50:14;;;;;;;11.88;10.60;;;12.10;99.90;;;;;;4990941;28;20772;-72
2022/04/18 02:52:41;;;;;;;15.00;9.65;;;12.20;99.90;;;;;;4991516;28;20200;-76
2022/04/18 02:55:11;;;;;;;12.55;11.20;;;12.20;99.90;;;;;;4990727;28;20650;-72
2022/04/18 02:57:39;;;;;;;15.20;10.90;;;12.10;99.90;;;;;;4991453;28;20205;-77
2022/04/18 03:00:08;;;;;;;11.67;9.77;;;12.10;99.90;;;;;;4990791;28;20201;-76
2022/04/18 03:02:36;;;;;;;11.77;9.20;;;12.10;99.90;;;;;;4991519;28;20204;-76
2022/04/18 03:05:05;;;;;;;12.63;10.37;;;12.30;99.90;;;;;;4990921;28;20267;-75
2022/04/18 03:07:32;;;;;;;12.40;8.75;;;12.30;99.90;;;;;;4991239;28;20209;-72
2022/04/18 03:09:59;;;;;;;12.20;9.43;;;12.20;99.90;;;;;;4991019;28;20209;-72
2022/04/18 03:12:26;;;;;;;10.80;8.40;;;12.30;99.90;;;;;;4991058;28;20645;-75
2022/04/18 03:14:53;;;;;;;11.90;8.95;;;12.20;99.90;;;;;;4991098;28;20657;-77
2022/04/18 03:17:20;;;;;;;11.43;8.67;;;12.30;99.90;;;;;;4990750;28;20625;-75
2022/04/18 03:19:48;;;;;;;10.60;9.40;;;12.20;99.90;;;;;;4991171;28;20558;-72
2022/04/18 03:22:15;;;;;;;11.13;9.77;;;12.20;99.90;;;;;;4990727;28;20252;-76
2022/04/18 03:24:43;;;;;;;13.13;10.80;;;12.20;99.90;;;;;;4990876;28;20205;-73
2022/04/18 03:27:10;;;;;;;13.18;9.50;;;12.10;99.90;;;;;;4990596;28;20205;-75
2022/04/18 03:29:37;;;;;;;12.23;9.35;;;12.20;99.90;;;;;;4991384;28;20205;-76
2022/04/18 03:32:05;;;;;;;15.17;10.20;;;12.20;99.90;;;;;;4990612;28;20205;-72
2022/04/18 03:34:33;;;;;;;12.63;8.87;;;12.30;99.90;;;;;;4991112;28;20256;-76
2022/04/18 03:39:52;;;;;;;11.70;8.87;;;12.30;99.90;;;;;;4990987;28;20208;-72
2022/04/18 03:42:28;;;;;;;10.63;8.70;;;12.10;99.90;;;;;;4990552;28;20780;-72
2022/04/18 03:44:56;;;;;;;16.50;11.03;;;12.10;99.90;;;;;;4991164;28;20209;-77
2022/04/18 03:47:23;;;;;;;11.33;8.83;;;12.20;99.90;;;;;;4993136;28;20252;-74
2022/04/18 03:49:50;;;;;;;12.15;8.80;;;12.20;99.90;;;;;;4994430;28;20291;-74
2022/04/18 03:52:19;;;;;;;14.05;10.10;;;12.20;99.90;;;;;;4993721;28;20665;-75
2022/04/18 03:54:46;;;;;;;13.97;9.03;;;12.20;99.90;;;;;;4994414;28;20205;-75
2022/04/18 03:57:14;;;;;;;11.10;9.90;;;12.10;99.90;;;;;;4993921;28;20205;-77
2022/04/18 03:59:41;;;;;;;15.17;9.57;;;12.10;99.90;;;;;;4994310;28;20209;-77
2022/04/18 04:02:08;;;;;;;13.70;9.95;;;12.10;99.90;;;;;;4993944;28;20205;-77
2022/04/18 04:04:36;;;;;;;12.23;10.55;;;12.20;99.90;;;;;;4992709;28;20216;-77
2022/04/18 04:07:03;;;;;;;9.68;8.50;;;12.20;99.90;;;;;;4993536;28;20208;-72
2022/04/18 04:09:31;;;;;;;10.63;8.93;;;12.20;99.90;;;;;;4994027;28;20209;-75
2022/04/18 04:11:58;;;;;;;9.98;8.70;;;12.10;99.90;;;;;;4994258;28;20296;-77
2022/04/18 04:14:25;;;;;;;11.57;9.07;;;12.10;99.90;;;;;;4993913;28;20251;-76
2022/04/18 04:16:52;;;;;;;11.83;9.00;;;12.10;99.90;;;;;;4993855;28;20233;-75
2022/04/18 04:19:19;;;;;;;11.73;9.35;;;12.10;99.90;;;;;;4993313;28;20700;-76
2022/04/18 04:21:46;;;;;;;15.27;8.80;;;12.10;99.90;;;;;;4993875;28;20275;-73
2022/04/18 04:24:13;;;;;;;11.87;9.10;;;12.20;99.90;;;;;;4993800;28;20201;-76
2022/04/18 04:26:41;;;;;;;14.73;10.30;;;12.20;99.90;;;;;;4993754;28;20204;-75
2022/04/18 04:29:08;;;;;;;9.47;8.47;;;12.30;99.90;;;;;;4993386;28;20257;-76
2022/04/18 04:31:35;;;;;;;11.15;9.75;;;12.20;99.90;;;;;;4993590;28;20209;-74
2022/04/18 04:34:02;;;;;;;10.43;8.48;;;12.10;99.90;;;;;;4993441;28;20212;-72
2022/04/18 04:36:29;;;;;;;11.73;7.97;;;12.10;99.90;;;;;;4993490;28;20237;-72
2022/04/18 04:38:56;;;;;;;10.15;7.80;;;12.20;99.90;;;;;;4993955;28;20292;-76
2022/04/18 04:41:23;;;;;;;12.07;8.10;;;12.20;99.90;;;;;;4993147;28;20205;-76
2022/04/18 04:43:51;;;;;;;14.65;10.43;;;12.20;99.90;;;;;;4993436;28;20209;-73
2022/04/18 04:46:18;;;;;;;8.68;7.45;;;12.30;99.90;;;;;;4992606;28;20224;-73
2022/04/18 04:48:45;;;;;;;13.88;8.25;;;12.20;99.90;;;;;;4993197;28;20205;-72
2022/04/18 04:51:12;;;;;;;12.20;8.98;;;12.30;99.90;;;;;;4992473;28;20209;-76
2022/04/18 04:53:39;;;;;;;8.37;7.50;;;12.40;99.90;;;;;;4993022;28;20262;-73
2022/04/18 04:56:06;;;;;;;12.43;8.90;;;12.40;99.90;;;;;;4992760;28;20291;-73
2022/04/18 04:58:33;;;;;;;11.60;7.65;;;12.40;99.90;;;;;;4992120;28;20208;-77
2022/04/18 05:01:01;;;;;;;9.90;8.23;;;12.40;99.90;;;;;;4993050;28;20205;-77
2022/04/18 05:03:28;;;;;;;11.73;8.52;;;12.40;99.90;;;;;;4993376;28;20209;-76
2022/04/18 05:05:55;;;;;;;11.45;8.00;;;12.40;99.90;;;;;;4992883;28;20676;-72
2022/04/18 05:08:22;;;;;;;10.00;8.70;;;12.30;99.90;;;;;;4992569;28;20263;-74
2022/04/18 05:10:49;;;;;;;11.32;8.77;;;12.30;99.90;;;;;;4992883;28;20271;-77
2022/04/18 05:13:16;;;;;;;11.00;7.68;;;12.30;99.90;;;;;;4992478;28;20201;-73
2022/04/18 05:15:43;;;;;;;10.95;8.52;;;12.30;99.90;;;;;;4992746;28;20283;-73
2022/04/18 05:18:12;;;;;;;13.25;8.40;;;12.30;99.90;;;;;;4992560;28;20626;-73
2022/04/18 05:20:39;;;;;;;10.27;7.50;;;12.40;99.90;;;;;;4992666;28;20358;-75
2022/04/18 05:23:06;;;;;;;10.05;9.00;;;12.30;99.90;;;;;;4992195;28;20201;-73
2022/04/18 05:25:34;;;;;;;12.52;8.57;;;12.30;99.90;;;;;;4992726;28;20217;-75
2022/04/18 05:28:01;;;;;;;8.20;7.40;;;12.30;99.90;;;;;;4992517;28;20240;-73
2022/04/18 05:30:28;;;;;;;9.60;7.32;;;12.30;99.90;;;;;;4993120;28;20638;-73
2022/04/18 05:32:55;;;;;;;10.60;8.40;;;12.30;99.90;;;;;;4992806;28;20212;-76
2022/04/18 05:35:24;;;;;;;13.27;7.63;;;12.40;99.90;;;;;;4991912;28;20267;-72
2022/04/18 05:37:51;;;;;;;11.73;8.30;;;12.40;99.90;;;;;;4992435;28;20251;-76
2022/04/18 05:40:18;;;;;;;7.32;6.53;;;12.30;99.90;;;;;;4991957;28;20204;-72
2022/04/18 05:42:45;;;;;;;9.23;6.90;;;12.30;99.90;;;;;;4992130;28;20215;-76
2022/04/18 05:45:12;;;;;;;10.65;7.10;;;12.30;99.90;;;;;;4992032;28;20621;-74
2022/04/18 05:47:39;;;;;;;11.02;7.38;;;12.20;99.90;;;;;;4992220;28;20271;-72
2022/04/18 05:50:07;;;;;;;8.90;7.10;;;12.30;99.90;;;;;;4991604;28;20213;-72
2022/04/18 05:52:36;;;;;;;10.45;7.15;;;12.50;99.90;;;;;;4992115;28;20208;-76
2022/04/18 05:55:03;;;;;;;8.60;7.33;;;12.50;99.90;;;;;;4991713;28;20283;-73
2022/04/18 05:57:30;;;;;;;10.43;7.15;;;12.60;99.90;;;;;;4991924;28;20287;-74
2022/04/18 05:59:57;;;;;;;6.85;6.13;;;12.60;99.90;;;;;;4992526;28;20205;-73
2022/04/18 06:02:23;;;;;;;8.67;6.60;;;12.70;99.90;;;;;;4991823;28;20263;-75
2022/04/18 06:04:50;;;;;;;10.48;7.75;;;12.80;99.90;;;;;;4991611;28;20267;-75
2022/04/18 06:07:17;;;;;;;8.37;7.20;;;12.80;99.90;;;;;;4991662;28;20209;-77
2022/04/18 06:09:46;;;;;;;7.38;6.30;;;12.70;99.90;;;;;;4991628;28;20263;-74
2022/04/18 06:12:13;;;;;;;7.10;6.37;;;12.80;99.90;;;;;;4991687;28;20230;-75
2022/04/18 06:14:40;;;;;;;7.43;6.50;;;12.90;99.90;;;;;;4991845;28;20212;-74
2022/04/18 06:17:07;;;;;;;9.48;7.05;;;12.90;99.90;;;;;;4990835;28;20244;-76
2022/04/18 06:19:34;;;;;;;8.27;5.68;;;13.00;99.90;;;;;;4991871;28;20204;-77
2022/04/18 06:22:01;;;;;;;7.03;6.22;;;13.10;99.90;;;;;;4991694;28;20340;-74
2022/04/18 06:24:28;;;;;;;9.48;7.35;;;13.10;99.90;;;;;;4992220;28;20251;-77
2022/04/18 06:26:56;;;;;;;14.20;7.65;;;13.00;99.90;;;;;;4992193;28;20263;-77
2022/04/18 06:29:23;;;;;;;8.07;6.95;;;13.00;99.90;;;;;;4991138;28;20213;-74
2022/04/18 06:31:53;;;;;;;10.10;7.10;;;13.10;99.90;;;;;;4991462;28;20288;-74
2022/04/18 06:34:20;;;;;;;10.00;5.95;;;13.00;99.90;;;;;;4991264;28;20205;-75
2022/04/18 06:36:47;;;;;;;8.73;6.63;;;13.20;99.90;;;;;;4991355;28;20291;-75
2022/04/18 06:39:14;;;;;;;6.95;6.35;;;13.10;99.90;;;;;;4991288;28;20208;-73
2022/04/18 06:41:41;;;;;;;7.80;7.00;;;13.20;99.90;;;;;;4991454;28;20252;-77
2022/04/18 06:44:09;;;;;;;10.02;6.88;;;13.30;99.90;;;;;;4991076;28;20669;-74
2022/04/18 06:46:37;;;;;;;6.30;5.72;;;13.40;99.90;;;;;;4991284;28;20623;-76
2022/04/18 06:49:03;;;;;;;9.38;6.35;;;13.40;99.90;;;;;;4991053;28;20205;-73
2022/04/18 06:51:30;;;;;;;7.45;6.15;;;13.30;99.90;;;;;;4991647;28;20204;-72
2022/04/18 06:53:57;;;;;;;9.82;6.05;;;13.30;99.90;;;;;;4991637;28;20201;-77
2022/04/18 06:59:10;;;;;;;8.18;6.90;;;13.40;99.90;;;;;;4991057;28;20566;-77
2022/04/18 07:01:37;;;;;;;9.98;6.00;;;13.30;99.90;;;;;;4991101;28;20209;-77
2022/04/18 07:04:04;;;;;;;7.72;6.30;;;13.60;99.90;;;;;;4990980;28;20571;-77
2022/04/18 07:06:31;;;;;;;7.20;5.72;;;13.70;99.90;;;;;;4991261;28;20204;-76
2022/04/18 07:08:58;;;;;;;9.48;6.75;;;13.80;99.90;;;;;;4991702;28;20216;-77
2022/04/18 07:11:25;;;;;;;8.85;8.00;;;13.80;99.90;;;;;;4991094;28;20209;-76
2022/04/18 07:13:52;;;;;;;6.72;5.60;;;13.70;99.90;;;;;;4991276;28;20580;-72
2022/04/18 07:16:20;;;;;;;6.97;6.28;;;13.50;99.90;;;;;;4990483;28;20228;-76
2022/04/18 07:18:47;;;;;;;9.38;6.75;;;13.40;99.90;;;;;;4991434;28;20205;-74
2022/04/18 07:21:14;;;;;;;6.72;5.72;;;13.70;99.90;;;;;;4991773;28;20204;-78
2022/04/18 07:23:41;;;;;;;7.50;5.93;;;13.70;99.90;;;;;;4995159;28;20215;-78
2022/04/18 07:26:08;;;;;;;5.93;5.35;;;13.60;99.90;;;;;;4994650;28;20263;-77
2022/04/18 07:28:38;;;;;;;8.32;6.07;;;13.60;99.90;;;;;;4994735;28;20259;-78
2022/04/18 07:31:06;;;;;;;7.47;6.68;;;13.70;99.90;;;;;;4994295;28;20216;-76
2022/04/18 07:33:35;;;;;;;6.63;5.97;;;13.60;99.90;;;;;;4994840;28;20295;-72
2022/04/18 07:36:03;;;;;;;8.68;6.38;;;13.60;99.90;;;;;;4994648;28;20234;-73
2022/04/18 07:41:14;;;;;;;7.75;6.22;;;13.50;99.90;;;;;;4994260;28;20703;-77
2022/04/18 07:43:41;;;;;;;7.03;6.32;;;13.30;99.90;;;;;;4994890;28;20209;-77
2022/04/18 07:46:08;;;;;;;7.03;5.53;;;13.20;99.90;;;;;;4994154;28;20212;-77
2022/04/18 07:48:37;;;;;;;12.70;6.80;;;13.20;99.90;;;;;;4994703;28;20204;-78
2022/04/18 07:53:49;;;;;;;8.65;5.68;;;13.10;99.90;;;;;;4994347;28;20223;-77
2022/04/18 07:56:16;;;;;;;9.52;6.72;;;13.10;99.90;;;;;;4994145;28;20229;-78
2022/04/18 07:58:43;;;;;;;9.57;6.57;;;13.30;99.90;;;;;;4994342;28;20200;-77
2022/04/18 08:01:10;;;;;;;10.43;6.13;;;13.50;99.90;;;;;;4994004;28;20205;-74
2022/04/18 08:03:38;;;;;;;8.05;6.40;;;13.50;99.90;;;;;;4994346;28;20669;-78
2022/04/18 08:06:05;;;;;;;8.93;5.47;;;13.60;99.90;;;;;;4993617;28;20680;-72
2022/04/18 08:08:33;;;;;;;7.47;5.80;;;13.70;99.90;;;;;;4994388;28;20267;-74
2022/04/18 08:11:00;;;;;;;6.32;5.68;;;13.90;99.90;;;;;;4994052;28;20240;-71
2022/04/18 08:13:27;;;;;;;8.63;5.65;;;13.90;99.90;;;;;;4994341;28;20213;-78
2022/04/18 08:15:54;;;;;;;10.10;5.45;;;13.90;99.90;;;;;;4994192;28;20623;-73
2022/04/18 08:18:22;;;;;;;8.25;7.05;;;14.00;99.90;;;;;;4993541;28;20244;-77
2022/04/18 08:20:52;;;;;;;7.05;6.05;;;14.30;99.90;;;;;;4993816;28;20212;-77
2022/04/18 08:23:19;;;;;;;12.45;6.10;;;14.40;99.90;;;;;;4993660;28;20212;-74
2022/04/18 08:25:46;;;;;;;8.82;6.15;;;14.40;99.90;;;;;;4993846;28;20615;-77
2022/04/18 08:28:13;;;;;;;9.98;6.90;;;14.30;99.90;;;;;;4993429;28;20205;-77
2022/04/18 08:30:40;;;;;;;7.20;5.93;;;14.20;99.90;;;;;;4993850;28;20235;-75
2022/04/18 08:33:08;;;;;;;7.55;6.75;;;14.30;99.90;;;;;;4993230;28;20263;-78
2022/04/18 08:35:35;;;;;;;6.90;5.82;;;14.30;99.90;;;;;;4993712;28;20688;-77
2022/04/18 08:38:04;;;;;;;7.70;6.90;;;14.30;99.90;;;;;;4993538;28;20241;-72
2022/04/18 08:40:31;;;;;;;9.07;5.88;;;14.40;99.90;;;;;;4994161;28;20209;-76
2022/04/18 08:42:58;;;;;;;8.18;6.25;;;14.30;99.90;;;;;;4993965;28;20209;-77
2022/04/18 08:45:27;;;;;;;7.35;6.65;;;14.20;99.90;;;;;;4993620;28;20251;-77
2022/04/18 08:53:29;;;;;;;8.63;7.28;;;14.40;99.90;;;;;;4993229;28;20324;-77
2022/04/18 08:55:57;;;;;;;9.20;7.35;;;14.40;99.90;;;;;;4993672;28;20204;-72
2022/04/18 08:58:26;;;;;;;10.63;6.97;;;14.50;99.90;;;;;;4992538;28;20279;-78
2022/04/18 09:00:54;;;;;;;8.70;7.82;;;14.70;99.90;;;;;;4993145;28;20581;-77
2022/04/18 09:03:21;;;;;;;12.20;7.55;;;14.70;99.90;;;;;;4992825;28;20623;-73
2022/04/18 09:05:48;;;;;;;7.80;7.10;;;14.70;99.90;;;;;;4993025;28;20213;-79
2022/04/18 09:08:15;;;;;;;12.52;6.75;;;14.80;99.90;;;;;;4992895;28;20259;-77
2022/04/18 09:10:43;;;;;;;9.70;7.25;;;14.80;99.90;;;;;;4993035;28;20201;-78
2022/04/18 09:13:12;;;;;;;10.00;8.38;;;14.80;99.90;;;;;;4992340;28;20629;-77
2022/04/18 09:15:41;;;;;;;9.27;7.80;;;14.80;99.90;;;;;;4993090;28;20287;-79
2022/04/18 09:18:10;;;;;;;10.32;8.18;;;14.70;99.90;;;;;;4992330;28;20232;-77
2022/04/18 09:20:48;;;;;;;14.18;8.02;;;14.70;99.90;;;;;;4992978;28;20267;-74
2022/04/18 09:23:23;;;;;;;9.65;8.13;;;14.80;99.90;;;;;;4992620;28;20707;-77
2022/04/18 09:26:03;;;;;;;8.88;7.20;;;14.90;99.90;;;;;;4992714;28;20209;-76
2022/04/18 09:28:33;;;;;;;16.80;8.95;;;15.00;99.90;;;;;;4992585;28;20208;-78
2022/04/18 09:31:02;;;;;;;9.93;8.50;;;15.10;99.90;;;;;;4992950;28;20208;-75
2022/04/18 09:33:30;;;;;;;9.93;8.30;;;14.90;99.90;;;;;;4993129;28;20205;-79
2022/04/18 09:36:12;;;;;;;9.00;8.10;;;14.80;99.90;;;;;;4993047;28;20204;-78
2022/04/18 09:38:43;;;;;;;12.30;8.77;;;15.00;99.90;;;;;;4992559;28;20316;-79
2022/04/18 09:41:15;;;;;;;10.43;7.72;;;15.50;99.90;;;;;;4991891;28;20217;-77
2022/04/18 09:43:44;;;;;;;10.25;9.25;;;15.50;99.90;;;;;;4992270;28;20209;-76
2022/04/18 09:46:12;;;;;;;9.23;7.40;;;15.40;99.90;;;;;;4991955;28;20570;-78
2022/04/18 09:48:40;;;;;;;8.50;7.70;;;15.30;99.90;;;;;;4992707;28;20212;-74
2022/04/18 09:51:09;;;;;;;9.75;7.97;;;15.50;99.90;;;;;;4992022;28;20209;-73
2022/04/18 09:53:37;;;;;;;8.65;7.03;;;15.40;99.90;;;;;;4992350;28;20247;-78
2022/04/18 09:56:05;;;;;;;10.88;7.32;;;15.40;99.90;;;;;;4991719;28;20271;-75
2022/04/18 09:58:35;;;;;;;12.32;8.20;;;15.60;99.90;;;;;;4992131;28;20236;-74
2022/04/18 10:01:05;;;;;;;13.23;9.13;;;15.50;99.90;;;;;;4992440;28;20212;-72
2022/04/18 10:03:33;;;;;;;9.25;7.88;;;15.40;99.90;;;;;;4991884;28;20750;-73
2022/04/18 10:06:01;;;;;;;8.60;7.65;;;15.30;99.90;;;;;;4991856;28;20224;-75
2022/04/18 10:08:29;;;;;;;11.25;9.30;;;15.20;99.90;;;;;;4993810;28;20723;-79
2022/04/18 10:10:58;;;;;;;9.32;8.30;;;15.10;99.90;;;;;;4992767;28;20283;-78
2022/04/18 10:13:26;;;;;;;10.43;8.43;;;15.30;99.90;;;;;;4991862;28;20743;-78
2022/04/18 10:15:55;;;;;;;11.75;8.23;;;15.30;99.90;;;;;;4992102;28;20205;-78
2022/04/18 10:18:23;;;;;;;8.80;7.45;;;15.50;99.90;;;;;;4992049;28;20240;-74
2022/04/18 10:21:25;;;;;;;9.45;8.45;;;15.60;99.90;;;;;;4992114;28;20223;-72
2022/04/18 10:24:24;;;;;;;9.82;8.82;;;15.40;99.90;;;;;;4992336;28;20212;-73
2022/04/18 10:27:20;;;;;;;10.10;8.63;;;15.30;99.90;;;;;;4991802;28;20204;-73
2022/04/18 10:29:50;;;;;;;10.90;9.73;;;15.40;99.90;;;;;;4979179;28;20209;-75
2022/04/18 10:32:22;;;;;;;10.73;9.60;;;15.30;99.90;;;;;;4991184;28;20300;-77
2022/04/18 10:34:51;;;;;;;9.98;8.48;;;15.30;99.90;;;;;;4991879;28;20236;-78
2022/04/18 10:37:22;;;;;;;8.25;7.07;;;15.70;99.90;;;;;;4991096;28;20232;-72
2022/04/18 10:39:57;;;;;;;9.55;8.15;;;16.20;99.90;;;;;;4991471;28;20696;-78
2022/04/18 10:42:29;;;;;;;11.73;7.97;;;16.30;99.90;;;;;;4991464;28;20204;-77
2022/04/18 10:45:06;;;;;;;9.48;8.05;;;16.10;99.90;;;;;;4992040;28;20208;-78
2022/04/18 10:48:04;;;;;;;8.98;8.00;;;16.00;99.90;;;;;;4991965;28;20212;-79
2022/04/18 10:50:35;;;;;;;8.98;7.75;;;16.40;99.90;;;;;;4991411;28;20665;-76
2022/04/18 10:53:09;;;;;;;10.50;7.78;;;16.10;99.90;;;;;;4990743;28;20263;-72
2022/04/18 10:55:37;;;;;;;14.88;8.10;;;16.30;99.90;;;;;;4991399;28;20204;-76
2022/04/18 10:58:15;;;;;;;8.95;7.50;;;16.30;99.90;;;;;;4995031;28;20237;-78
2022/04/18 11:00:49;;;;;;;11.23;7.93;;;16.00;99.90;;;;;;4995582;28;20212;-73
2022/04/18 11:03:43;;;;;;;12.05;8.25;;;16.10;99.90;;;;;;4994921;28;20204;-78
2022/04/18 11:06:12;;;;;;;9.45;8.20;;;16.20;99.90;;;;;;4994603;28;20271;-79
2022/04/18 11:08:40;;;;;;;11.05;7.30;;;16.30;99.90;;;;;;4995140;28;20263;-77
2022/04/18 11:11:07;;;;;;;9.93;8.23;;;16.50;99.90;;;;;;4994906;28;20205;-77
2022/04/18 11:13:34;;;;;;;12.38;7.75;;;16.60;99.90;;;;;;4995311;28;20211;-71
2022/04/18 11:16:20;;;;;;;9.88;6.93;;;16.70;99.90;;;;;;4995308;28;20267;-78
2022/04/18 11:19:07;;;;;;;8.73;7.75;;;17.10;99.90;;;;;;4994647;28;20290;-79
2022/04/18 11:22:10;;;;;;;11.00;6.85;;;16.90;99.90;;;;;;4994804;28;20680;-78
2022/04/18 11:24:39;;;;;;;10.30;6.97;;;17.10;99.90;;;;;;4995209;28;20300;-79
2022/04/18 11:27:09;;;;;;;7.22;6.18;;;17.20;99.90;;;;;;4994714;28;20259;-78
2022/04/18 11:29:36;;;;;;;9.07;7.82;;;17.50;99.90;;;;;;4995041;28;20205;-77
2022/04/18 11:32:04;;;;;;;9.63;8.63;;;17.40;99.90;;;;;;4994491;28;20209;-73
2022/04/18 11:34:34;;;;;;;9.07;7.28;;;17.10;99.90;;;;;;4994640;28;20205;-77
2022/04/18 11:37:03;;;;;;;7.22;6.53;;;17.30;99.90;;;;;;4994857;28;20205;-78
2022/04/18 11:39:46;;;;;;;9.07;7.60;;;17.30;99.90;;;;;;4994735;28;20205;-72
2022/04/18 11:42:17;;;;;;;8.02;7.32;;;17.80;99.90;;;;;;4994305;28;20212;-75
2022/04/18 11:44:46;;;;;;;8.57;7.78;;;17.60;99.90;;;;;;4994646;28;20259;-77
2022/04/18 11:47:15;;;;;;;10.27;7.88;;;17.50;99.90;;;;;;4994257;28;20619;-75
2022/04/18 11:49:45;;;;;;;8.60;7.20;;;17.80;99.90;;;;;;4994649;28;20264;-76
2022/04/18 11:52:20;;;;;;;7.88;7.03;;;17.50;99.90;;;;;;4994107;28;20231;-72
2022/04/18 11:55:01;;;;;;;9.07;7.25;;;17.90;99.90;;;;;;4994659;28;20211;-78
2022/04/18 11:57:30;;;;;;;7.53;6.75;;;17.80;99.90;;;;;;4994575;28;20201;-78
2022/04/18 11:59:57;;;;;;;9.15;7.93;;;17.40;99.90;;;;;;4994817;28;20209;-72
2022/04/18 12:08:02;;;;;;;9.18;6.57;;;17.20;99.90;;;;;;4993866;28;20215;-79
2022/04/18 12:10:31;;;;;;;6.15;5.63;;;17.70;99.90;;;;;;4994504;28;20233;-73
2022/04/18 12:13:00;;;;;;;8.85;6.70;;;18.30;99.90;;;;;;4994539;28;20227;-78
2022/04/18 12:15:28;;;;;;;6.15;5.65;;;18.40;99.90;;;;;;4994445;28;20216;-77
2022/04/18 12:17:57;;;;;;;8.43;6.32;;;18.10;99.90;;;;;;4994154;28;20233;-72
2022/04/18 12:20:28;;;;;;;6.75;6.10;;;18.30;99.90;;;;;;4993290;28;20255;-72
2022/04/18 12:22:58;;;;;;;7.95;6.43;;;18.30;99.90;;;;;;4994243;28;20209;-71
2022/04/18 12:25:27;;;;;;;7.30;5.45;;;18.00;99.90;;;;;;4993909;28;20233;-72
2022/04/18 12:27:55;;;;;;;10.55;6.85;;;17.90;99.90;;;;;;4994168;28;20618;-71
2022/04/18 12:30:23;;;;;;;7.60;5.28;;;17.70;99.90;;;;;;4993496;28;20213;-71
2022/04/18 12:32:50;;;;;;;8.20;5.53;;;17.40;99.90;;;;;;4993716;28;20209;-71
2022/04/18 12:35:32;;;;;;;6.55;5.57;;;17.40;99.90;;;;;;4993372;28;20691;-71
2022/04/18 12:38:03;;;;;;;7.25;5.95;;;17.90;99.90;;;;;;4993385;28;20256;-72
2022/04/18 12:40:35;;;;;;;6.13;5.18;;;18.70;99.90;;;;;;4993592;28;20212;-71
2022/04/18 12:43:06;;;;;;;7.88;5.80;;;18.70;99.90;;;;;;4993453;28;20205;-71
2022/04/18 12:45:52;;;;;;;5.95;5.05;;;18.50;99.90;;;;;;4993476;28;20205;-71
2022/04/18 12:48:23;;;;;;;5.97;5.38;;;18.40;99.90;;;;;;4993081;28;20208;-73
2022/04/18 12:50:51;;;;;;;6.65;5.82;;;18.50;99.90;;;;;;4993223;28;20221;-71
2022/04/18 12:53:20;;;;;;;4.93;4.63;;;18.30;99.90;;;;;;4992719;28;20561;-71
2022/04/18 12:55:47;;;;;;;6.43;5.82;;;18.40;99.90;;;;;;4993250;28;20228;-71
2022/04/18 12:58:19;;;;;;;8.25;5.13;;;18.80;99.90;;;;;;4993019;28;20236;-72
2022/04/18 13:00:48;;;;;;;6.25;5.53;;;18.90;99.90;;;;;;4993207;28;20205;-72
2022/04/18 13:03:16;;;;;;;7.28;5.68;;;18.50;99.90;;;;;;4992666;28;20209;-79
2022/04/18 13:05:45;;;;;;;7.55;6.35;;;18.30;99.90;;;;;;4993070;28;20347;-76
2022/04/18 13:08:13;;;;;;;4.85;4.45;;;18.40;99.90;;;;;;4992726;28;20737;-72
2022/04/18 13:10:42;;;;;;;5.75;5.05;;;18.40;99.90;;;;;;4992986;28;20205;-76
2022/04/18 13:13:13;;;;;;;4.85;4.13;;;18.80;99.90;;;;;;4992676;28;20209;-79